sensor_id;sensor_type;location;lat;lon;timestamp;pressure;altitude;pressure_sealevel;temperature;humidity
47166;BME280;32930;51.112;13.762;2023-04-04T00:01:50;100534.50;;;4.60;64.17
47166;BME280;32930;51.112;13.762;2023-04-04T00:04:16;100531.50;;;4.69;64.51
47166;BME280;32930;51.112;13.762;2023-04-04T00:06:41;100529.22;;;4.75;64.31
47166;BME280;32930;51.112;13.762;2023-04-04T00:09:11;100534.75;;;4.66;63.79
47166;BME280;32930;51.112;13.762;2023-04-04T00:11:37;100536.72;;;4.72;64.39
47166;BME280;32930;51.112;13.762;2023-04-04T00:14:03;100529.28;;;4.57;63.77
47166;BME280;32930;51.112;13.762;2023-04-04T00:16:29;100524.94;;;4.54;63.70
47166;BME280;32930;51.112;13.762;2023-04-04T00:18:55;100521.88;;;4.61;64.49
47166;BME280;32930;51.112;13.762;2023-04-04T00:21:20;100526.00;;;4.59;64.22
47166;BME280;32930;51.112;13.762;2023-04-04T00:23:48;100525.59;;;4.70;64.57
47166;BME280;32930;51.112;13.762;2023-04-04T00:26:13;100517.66;;;4.62;64.34
47166;BME280;32930;51.112;13.762;2023-04-04T00:28:39;100514.03;;;4.57;64.53
47166;BME280;32930;51.112;13.762;2023-04-04T00:31:05;100521.28;;;4.67;64.93
47166;BME280;32930;51.112;13.762;2023-04-04T00:33:30;100507.16;;;4.74;64.46
47166;BME280;32930;51.112;13.762;2023-04-04T00:35:56;100516.06;;;4.64;64.57
47166;BME280;32930;51.112;13.762;2023-04-04T00:38:21;100509.34;;;4.66;64.34
47166;BME280;32930;51.112;13.762;2023-04-04T00:40:48;100513.25;;;4.58;64.66
47166;BME280;32930;51.112;13.762;2023-04-04T00:43:17;100513.88;;;4.54;64.55
47166;BME280;32930;51.112;13.762;2023-04-04T00:45:42;100505.78;;;4.43;64.53
47166;BME280;32930;51.112;13.762;2023-04-04T00:48:08;100515.50;;;4.52;65.25
47166;BME280;32930;51.112;13.762;2023-04-04T00:50:33;100504.06;;;4.42;65.08
47166;BME280;32930;51.112;13.762;2023-04-04T00:52:59;100512.25;;;4.54;65.61
47166;BME280;32930;51.112;13.762;2023-04-04T00:55:25;100510.28;;;4.49;65.10
47166;BME280;32930;51.112;13.762;2023-04-04T00:57:51;100504.47;;;4.51;65.63
47166;BME280;32930;51.112;13.762;2023-04-04T01:00:17;100504.53;;;4.53;65.19
47166;BME280;32930;51.112;13.762;2023-04-04T01:02:43;100511.00;;;4.46;65.47
47166;BME280;32930;51.112;13.762;2023-04-04T01:05:09;100501.84;;;4.50;65.68
47166;BME280;32930;51.112;13.762;2023-04-04T05:59:28;100478.38;;;7.94;52.45
47166;BME280;32930;51.112;13.762;2023-04-04T06:01:54;100472.41;;;9.13;49.62
47166;BME280;32930;51.112;13.762;2023-04-04T06:04:20;100467.44;;;9.52;49.58
47166;BME280;32930;51.112;13.762;2023-04-04T06:06:45;100471.34;;;9.39;48.41
47166;BME280;32930;51.112;13.762;2023-04-04T06:09:11;100471.66;;;8.85;49.97
47166;BME280;32930;51.112;13.762;2023-04-04T06:11:37;100467.63;;;8.93;50.18
47166;BME280;32930;51.112;13.762;2023-04-04T06:14:02;100479.47;;;9.56;49.22
47166;BME280;32930;51.112;13.762;2023-04-04T06:16:28;100471.31;;;8.73;49.46
47166;BME280;32930;51.112;13.762;2023-04-04T06:18:53;100474.03;;;8.77;50.17
47166;BME280;32930;51.112;13.762;2023-04-04T06:21:19;100471.91;;;8.63;51.06
47166;BME280;32930;51.112;13.762;2023-04-04T06:23:45;100472.53;;;8.86;49.73
47166;BME280;32930;51.112;13.762;2023-04-04T06:26:10;100473.81;;;9.35;49.08
47166;BME280;32930;51.112;13.762;2023-04-04T06:28:36;100466.03;;;9.30;48.40
47166;BME280;32930;51.112;13.762;2023-04-04T06:31:04;100469.56;;;9.35;48.58
47166;BME280;32930;51.112;13.762;2023-04-04T06:48:56;100464.91;;;8.87;48.40
47166;BME280;32930;51.112;13.762;2023-04-04T06:51:22;100470.56;;;8.75;48.20
47166;BME280;32930;51.112;13.762;2023-04-04T06:53:48;100464.47;;;8.70;48.58
47166;BME280;32930;51.112;13.762;2023-04-04T06:56:14;100464.56;;;8.45;48.60
47166;BME280;32930;51.112;13.762;2023-04-04T08:53:18;100438.16;;;8.76;41.65
47166;BME280;32930;51.112;13.762;2023-04-04T08:55:44;100437.66;;;9.22;41.51
47166;BME280;32930;51.112;13.762;2023-04-04T08:58:10;100432.53;;;9.22;40.61
47166;BME280;32930;51.112;13.762;2023-04-04T09:00:36;100436.63;;;9.49;40.99
47166;BME280;32930;51.112;13.762;2023-04-04T09:08:58;100421.00;;;9.76;40.58
47166;BME280;32930;51.112;13.762;2023-04-04T09:11:26;100436.59;;;9.85;39.42
47166;BME280;32930;51.112;13.762;2023-04-04T09:13:55;100425.75;;;9.98;39.66
47166;BME280;32930;51.112;13.762;2023-04-04T09:16:21;100426.47;;;9.91;39.69
47166;BME280;32930;51.112;13.762;2023-04-04T09:18:47;100427.31;;;9.90;39.09
47166;BME280;32930;51.112;13.762;2023-04-04T09:21:13;100423.19;;;9.98;38.77
47166;BME280;32930;51.112;13.762;2023-04-04T09:23:39;100420.19;;;10.18;38.32
47166;BME280;32930;51.112;13.762;2023-04-04T09:26:05;100419.59;;;10.28;37.74
47166;BME280;32930;51.112;13.762;2023-04-04T09:28:32;100435.34;;;10.06;37.05
47166;BME280;32930;51.112;13.762;2023-04-04T09:31:03;100436.25;;;9.00;37.92
47166;BME280;32930;51.112;13.762;2023-04-04T09:33:31;100428.06;;;9.14;38.54
47166;BME280;32930;51.112;13.762;2023-04-04T09:36:10;100422.94;;;9.14;36.82
47166;BME280;32930;51.112;13.762;2023-04-04T09:38:39;100417.31;;;9.63;37.76
47166;BME280;32930;51.112;13.762;2023-04-04T09:41:08;100423.28;;;9.64;37.98
47166;BME280;32930;51.112;13.762;2023-04-04T09:43:35;100420.56;;;9.94;38.30
47166;BME280;32930;51.112;13.762;2023-04-04T09:46:02;100415.94;;;9.79;38.24
47166;BME280;32930;51.112;13.762;2023-04-04T10:21:14;100420.59;;;10.80;37.38
47166;BME280;32930;51.112;13.762;2023-04-04T10:23:44;100423.41;;;10.47;35.71
47166;BME280;32930;51.112;13.762;2023-04-04T10:45:30;100397.06;;;10.15;35.64
47166;BME280;32930;51.112;13.762;2023-04-04T10:47:57;100399.47;;;10.07;36.17
47166;BME280;32930;51.112;13.762;2023-04-04T11:07:15;100395.63;;;10.72;35.13
47166;BME280;32930;51.112;13.762;2023-04-04T11:09:52;100388.97;;;10.34;34.79
47166;BME280;32930;51.112;13.762;2023-04-04T11:31:42;100361.34;;;11.18;34.93
47166;BME280;32930;51.112;13.762;2023-04-04T11:34:11;100355.75;;;10.90;33.98
47166;BME280;32930;51.112;13.762;2023-04-04T11:42:14;100359.28;;;10.49;34.54
47166;BME280;32930;51.112;13.762;2023-04-04T11:45:00;100357.97;;;10.71;33.79
47166;BME280;32930;51.112;13.762;2023-04-04T11:47:27;100349.38;;;10.68;34.26
47166;BME280;32930;51.112;13.762;2023-04-04T11:49:55;100346.00;;;10.70;34.20
47166;BME280;32930;51.112;13.762;2023-04-04T11:52:21;100346.63;;;10.58;33.73
47166;BME280;32930;51.112;13.762;2023-04-04T11:54:50;100339.00;;;10.61;33.28
47166;BME280;32930;51.112;13.762;2023-04-04T12:03:59;100349.19;;;10.56;34.11
47166;BME280;32930;51.112;13.762;2023-04-04T12:06:29;100340.81;;;10.66;33.65
47166;BME280;32930;51.112;13.762;2023-04-04T12:08:57;100340.94;;;10.74;36.79
47166;BME280;32930;51.112;13.762;2023-04-04T12:11:25;100329.59;;;10.61;35.37
47166;BME280;32930;51.112;13.762;2023-04-04T12:13:51;100331.16;;;10.53;35.70
47166;BME280;32930;51.112;13.762;2023-04-04T12:16:19;100333.53;;;10.42;35.62
47166;BME280;32930;51.112;13.762;2023-04-04T12:35:01;100315.81;;;9.68;35.75
47166;BME280;32930;51.112;13.762;2023-04-04T12:37:30;100309.25;;;9.81;36.06
47166;BME280;32930;51.112;13.762;2023-04-04T12:39:56;100313.50;;;9.81;36.31
47166;BME280;32930;51.112;13.762;2023-04-04T12:42:23;100315.75;;;9.65;36.38
47166;BME280;32930;51.112;13.762;2023-04-04T12:44:50;100309.81;;;9.68;35.76
47166;BME280;32930;51.112;13.762;2023-04-04T12:47:17;100308.06;;;9.67;36.22
47166;BME280;32930;51.112;13.762;2023-04-04T12:49:47;100310.13;;;9.83;37.07
47166;BME280;32930;51.112;13.762;2023-04-04T12:52:29;100302.28;;;9.75;36.08
47166;BME280;32930;51.112;13.762;2023-04-04T12:55:23;100311.47;;;9.66;36.12
47166;BME280;32930;51.112;13.762;2023-04-04T12:57:50;100314.06;;;9.67;35.97
47166;BME280;32930;51.112;13.762;2023-04-04T13:00:16;100295.56;;;9.40;35.25
47166;BME280;32930;51.112;13.762;2023-04-04T13:02:45;100303.63;;;9.20;34.87
47166;BME280;32930;51.112;13.762;2023-04-04T13:05:14;100303.09;;;9.34;35.71
47166;BME280;32930;51.112;13.762;2023-04-04T13:07:40;100299.31;;;9.56;35.48
47166;BME280;32930;51.112;13.762;2023-04-04T13:22:33;100288.03;;;9.10;36.28
47166;BME280;32930;51.112;13.762;2023-04-04T13:24:58;100281.94;;;9.04;37.01
47166;BME280;32930;51.112;13.762;2023-04-04T13:27:24;100281.34;;;9.15;36.70
47166;BME280;32930;51.112;13.762;2023-04-04T13:29:52;100285.66;;;9.17;37.76
47166;BME280;32930;51.112;13.762;2023-04-04T13:32:20;100272.69;;;9.10;35.85
47166;BME280;32930;51.112;13.762;2023-04-04T13:34:46;100270.56;;;8.92;36.46
47166;BME280;32930;51.112;13.762;2023-04-04T13:37:14;100267.88;;;9.23;37.15
47166;BME280;32930;51.112;13.762;2023-04-04T13:39:40;100272.75;;;9.13;36.24
47166;BME280;32930;51.112;13.762;2023-04-04T13:42:05;100263.94;;;9.01;35.77
47166;BME280;32930;51.112;13.762;2023-04-04T14:03:25;100237.75;;;9.12;36.12
47166;BME280;32930;51.112;13.762;2023-04-04T14:05:51;100244.38;;;9.02;37.07
47166;BME280;32930;51.112;13.762;2023-04-04T14:08:24;100255.19;;;8.90;36.67
47166;BME280;32930;51.112;13.762;2023-04-04T14:10:49;100243.97;;;8.85;36.29
47166;BME280;32930;51.112;13.762;2023-04-04T14:13:26;100243.19;;;8.88;36.16
47166;BME280;32930;51.112;13.762;2023-04-04T14:16:05;100240.38;;;8.77;35.83
47166;BME280;32930;51.112;13.762;2023-04-04T14:18:42;100241.56;;;8.91;35.33
47166;BME280;32930;51.112;13.762;2023-04-04T14:21:27;100228.31;;;8.73;35.43
47166;BME280;32930;51.112;13.762;2023-04-04T14:23:53;100223.50;;;8.85;35.03
47166;BME280;32930;51.112;13.762;2023-04-04T14:26:18;100222.91;;;8.95;35.72
47166;BME280;32930;51.112;13.762;2023-04-04T14:28:44;100229.94;;;9.05;36.30
47166;BME280;32930;51.112;13.762;2023-04-04T14:31:09;100238.13;;;8.91;36.42
47166;BME280;32930;51.112;13.762;2023-04-04T14:33:43;100235.34;;;8.80;36.40
47166;BME280;32930;51.112;13.762;2023-04-04T14:36:08;100238.47;;;8.70;35.41
47166;BME280;32930;51.112;13.762;2023-04-04T14:38:34;100241.25;;;8.77;35.26
47166;BME280;32930;51.112;13.762;2023-04-04T14:40:59;100228.25;;;8.70;34.60
47166;BME280;32930;51.112;13.762;2023-04-04T14:45:59;100228.75;;;8.91;35.64
47166;BME280;32930;51.112;13.762;2023-04-04T14:48:24;100222.28;;;8.69;34.19
47166;BME280;32930;51.112;13.762;2023-04-04T14:50:57;100223.06;;;8.67;34.68
47166;BME280;32930;51.112;13.762;2023-04-04T14:53:23;100220.34;;;8.61;35.09
47166;BME280;32930;51.112;13.762;2023-04-04T14:58:21;100221.72;;;8.82;36.18
47166;BME280;32930;51.112;13.762;2023-04-04T15:00:49;100226.44;;;8.64;35.27
47166;BME280;32930;51.112;13.762;2023-04-04T15:16:11;100211.16;;;8.67;36.42
47166;BME280;32930;51.112;13.762;2023-04-04T15:24:27;100211.03;;;8.63;35.34
47166;BME280;32930;51.112;13.762;2023-04-04T15:26:53;100209.09;;;8.52;36.29
47166;BME280;32930;51.112;13.762;2023-04-04T15:52:58;100214.94;;;8.13;36.75
47166;BME280;32930;51.112;13.762;2023-04-04T15:55:24;100213.81;;;8.04;36.03
47166;BME280;32930;51.112;13.762;2023-04-04T15:57:56;100209.50;;;8.01;35.99
47166;BME280;32930;51.112;13.762;2023-04-04T16:00:22;100209.97;;;7.88;36.98
47166;BME280;32930;51.112;13.762;2023-04-04T16:02:58;100212.06;;;8.03;36.90
47166;BME280;32930;51.112;13.762;2023-04-04T16:15:21;100208.09;;;7.81;37.40
47166;BME280;32930;51.112;13.762;2023-04-04T16:17:47;100201.44;;;7.86;36.67
47166;BME280;32930;51.112;13.762;2023-04-04T16:22:48;100204.41;;;8.03;37.67
47166;BME280;32930;51.112;13.762;2023-04-04T16:25:14;100200.84;;;7.96;37.98
47166;BME280;32930;51.112;13.762;2023-04-04T17:23:14;100189.06;;;7.38;39.42
47166;BME280;32930;51.112;13.762;2023-04-04T17:33:15;100197.78;;;7.46;39.86
47166;BME280;32930;51.112;13.762;2023-04-04T17:35:47;100191.69;;;7.41;39.87
47166;BME280;32930;51.112;13.762;2023-04-04T17:50:32;100198.91;;;7.26;40.86
47166;BME280;32930;51.112;13.762;2023-04-04T17:52:57;100195.53;;;7.27;41.07
47166;BME280;32930;51.112;13.762;2023-04-04T17:55:23;100197.16;;;7.25;41.09
47166;BME280;32930;51.112;13.762;2023-04-04T17:57:48;100198.47;;;7.12;41.25
47166;BME280;32930;51.112;13.762;2023-04-04T18:00:15;100203.00;;;7.20;40.57
47166;BME280;32930;51.112;13.762;2023-04-04T18:02:40;100197.78;;;7.16;41.14
47166;BME280;32930;51.112;13.762;2023-04-04T18:05:07;100191.09;;;7.21;41.14
47166;BME280;32930;51.112;13.762;2023-04-04T18:07:33;100199.78;;;7.26;41.06
47166;BME280;32930;51.112;13.762;2023-04-04T18:09:59;100197.25;;;7.28;41.12
47166;BME280;32930;51.112;13.762;2023-04-04T18:12:24;100193.19;;;7.34;42.20
47166;BME280;32930;51.112;13.762;2023-04-04T21:01:22;100195.59;;;5.94;51.87
47166;BME280;32930;51.112;13.762;2023-04-04T21:03:48;100194.88;;;5.98;52.02
47166;BME280;32930;51.112;13.762;2023-04-04T21:06:15;100201.88;;;6.04;51.77
47166;BME280;32930;51.112;13.762;2023-04-04T21:08:43;100191.66;;;6.02;51.53
47166;BME280;32930;51.112;13.762;2023-04-04T21:11:11;100188.28;;;6.03;52.04
47166;BME280;32930;51.112;13.762;2023-04-04T21:13:39;100194.34;;;6.07;52.00
47166;BME280;32930;51.112;13.762;2023-04-04T21:16:09;100193.31;;;6.02;51.73
47166;BME280;32930;51.112;13.762;2023-04-04T21:18:37;100189.78;;;5.98;51.72
47166;BME280;32930;51.112;13.762;2023-04-04T21:21:16;100194.41;;;6.09;52.37
47166;BME280;32930;51.112;13.762;2023-04-04T21:23:48;100189.50;;;5.91;52.68
47166;BME280;32930;51.112;13.762;2023-04-04T21:28:57;100187.94;;;5.93;53.65
47166;BME280;32930;51.112;13.762;2023-04-04T21:31:34;100191.19;;;5.90;51.63
47166;BME280;32930;51.112;13.762;2023-04-04T21:34:21;100174.78;;;6.06;51.16
47166;BME280;32930;51.112;13.762;2023-04-04T21:36:49;100172.84;;;5.99;51.33
47166;BME280;32930;51.112;13.762;2023-04-04T21:39:23;100174.28;;;5.92;51.47
47166;BME280;32930;51.112;13.762;2023-04-04T21:41:58;100182.94;;;5.96;51.92
47166;BME280;32930;51.112;13.762;2023-04-04T21:44:24;100172.78;;;5.97;52.13
47166;BME280;32930;51.112;13.762;2023-04-04T21:46:50;100171.59;;;5.88;52.41
47166;BME280;32930;51.112;13.762;2023-04-04T21:49:16;100166.94;;;6.00;52.16
47166;BME280;32930;51.112;13.762;2023-04-04T21:51:42;100164.31;;;5.98;52.13
47166;BME280;32930;51.112;13.762;2023-04-04T21:54:08;100164.19;;;5.94;51.80
47166;BME280;32930;51.112;13.762;2023-04-04T21:56:34;100164.09;;;5.92;52.13
47166;BME280;32930;51.112;13.762;2023-04-04T21:59:02;100161.41;;;5.88;51.83
47166;BME280;32930;51.112;13.762;2023-04-04T22:01:28;100161.19;;;5.81;52.14
47166;BME280;32930;51.112;13.762;2023-04-04T22:03:55;100161.53;;;5.92;52.56
47166;BME280;32930;51.112;13.762;2023-04-04T22:06:23;100159.00;;;5.92;52.33
47166;BME280;32930;51.112;13.762;2023-04-04T22:08:55;100157.56;;;5.75;53.01
47166;BME280;32930;51.112;13.762;2023-04-04T22:11:23;100154.38;;;5.80;52.65
47166;BME280;32930;51.112;13.762;2023-04-04T22:13:51;100156.00;;;5.78;52.79
47166;BME280;32930;51.112;13.762;2023-04-04T22:16:18;100158.59;;;5.80;52.22
47166;BME280;32930;51.112;13.762;2023-04-04T22:18:48;100154.25;;;6.01;52.21
47166;BME280;32930;51.112;13.762;2023-04-04T22:21:20;100150.34;;;5.87;52.66
47166;BME280;32930;51.112;13.762;2023-04-04T22:23:52;100159.47;;;5.80;53.06
47166;BME280;32930;51.112;13.762;2023-04-04T22:26:19;100162.16;;;5.85;52.35
47166;BME280;32930;51.112;13.762;2023-04-04T22:28:54;100157.03;;;5.84;52.26
47166;BME280;32930;51.112;13.762;2023-04-04T22:31:21;100159.56;;;5.84;51.85
47166;BME280;32930;51.112;13.762;2023-04-04T22:33:46;100159.78;;;5.90;51.85
47166;BME280;32930;51.112;13.762;2023-04-04T22:36:12;100159.16;;;5.71;52.57
47166;BME280;32930;51.112;13.762;2023-04-04T22:38:41;100151.13;;;5.85;52.27
47166;BME280;32930;51.112;13.762;2023-04-04T22:41:07;100151.84;;;5.80;52.16
47166;BME280;32930;51.112;13.762;2023-04-04T22:43:32;100151.41;;;5.68;53.61
47166;BME280;32930;51.112;13.762;2023-04-04T22:45:58;100149.22;;;5.79;53.05
47166;BME280;32930;51.112;13.762;2023-04-04T22:48:24;100157.56;;;5.75;53.58
47166;BME280;32930;51.112;13.762;2023-04-04T22:50:50;100145.69;;;5.74;52.71
47166;BME280;32930;51.112;13.762;2023-04-04T22:53:21;100156.66;;;5.73;52.58
47166;BME280;32930;51.112;13.762;2023-04-04T22:55:52;100149.72;;;5.69;52.67
47166;BME280;32930;51.112;13.762;2023-04-04T22:58:19;100153.19;;;5.71;53.28
47166;BME280;32930;51.112;13.762;2023-04-04T23:00:45;100152.47;;;5.75;53.16
47166;BME280;32930;51.112;13.762;2023-04-04T23:03:10;100145.72;;;5.75;52.31
47166;BME280;32930;51.112;13.762;2023-04-04T23:05:36;100143.81;;;5.70;52.88
47166;BME280;32930;51.112;13.762;2023-04-04T23:08:01;100146.34;;;5.70;53.50
47166;BME280;32930;51.112;13.762;2023-04-04T23:10:30;100148.75;;;5.65;53.52
47166;BME280;32930;51.112;13.762;2023-04-04T23:12:56;100147.13;;;5.67;53.63
47166;BME280;32930;51.112;13.762;2023-04-04T23:15:21;100154.84;;;5.70;53.37
47166;BME280;32930;51.112;13.762;2023-04-04T23:17:47;100142.84;;;5.66;54.57
47166;BME280;32930;51.112;13.762;2023-04-04T23:20:12;100144.69;;;5.70;54.29
47166;BME280;32930;51.112;13.762;2023-04-04T23:22:38;100145.56;;;5.71;53.93
47166;BME280;32930;51.112;13.762;2023-04-04T23:25:05;100146.09;;;5.62;53.76
47166;BME280;32930;51.112;13.762;2023-04-04T23:27:32;100145.25;;;5.62;53.06
47166;BME280;32930;51.112;13.762;2023-04-04T23:29:58;100136.72;;;5.61;53.42
47166;BME280;32930;51.112;13.762;2023-04-04T23:32:28;100143.72;;;5.67;52.80
47166;BME280;32930;51.112;13.762;2023-04-04T23:34:53;100142.03;;;5.67;54.20
47166;BME280;32930;51.112;13.762;2023-04-04T23:37:19;100133.69;;;5.71;54.72
47166;BME280;32930;51.112;13.762;2023-04-04T23:39:45;100139.44;;;5.66;54.46
47166;BME280;32930;51.112;13.762;2023-04-04T23:42:10;100133.38;;;5.62;52.98
47166;BME280;32930;51.112;13.762;2023-04-04T23:44:36;100131.63;;;5.61;53.44
47166;BME280;32930;51.112;13.762;2023-04-04T23:47:02;100135.09;;;5.63;54.36
47166;BME280;32930;51.112;13.762;2023-04-04T23:49:28;100134.19;;;5.61;54.36
47166;BME280;32930;51.112;13.762;2023-04-04T23:51:53;100125.03;;;5.66;54.39
47166;BME280;32930;51.112;13.762;2023-04-04T23:54:19;100127.44;;;5.62;54.12
47166;BME280;32930;51.112;13.762;2023-04-04T23:56:45;100119.69;;;5.58;54.33
47166;BME280;32930;51.112;13.762;2023-04-04T23:59:10;100117.28;;;5.63;54.50
